sensor_id;sensor_type;location;lat;lon;timestamp;P1;durP1;ratioP1;P2;durP2;ratioP2
4508;SDS011;2267;48.816;9.230;2023-07-20T00:01:51;3.50;;;2.27;;
4508;SDS011;2267;48.816;9.230;2023-07-20T00:04:18;3.67;;;2.97;;
4508;SDS011;2267;48.816;9.230;2023-07-20T00:06:45;3.70;;;2.77;;
4508;SDS011;2267;48.816;9.230;2023-07-20T00:09:12;4.27;;;2.50;;
4508;SDS011;2267;48.816;9.230;2023-07-20T00:11:39;4.20;;;2.70;;
4508;SDS011;2267;48.816;9.230;2023-07-20T00:14:06;4.90;;;2.23;;
4508;SDS011;2267;48.816;9.230;2023-07-20T00:16:33;3.23;;;2.33;;
4508;SDS011;2267;48.816;9.230;2023-07-20T00:19:00;3.30;;;2.20;;
4508;SDS011;2267;48.816;9.230;2023-07-20T00:21:27;5.50;;;2.67;;
4508;SDS011;2267;48.816;9.230;2023-07-20T00:23:53;3.77;;;2.50;;
4508;SDS011;2267;48.816;9.230;2023-07-20T00:26:20;3.27;;;2.63;;
4508;SDS011;2267;48.816;9.230;2023-07-20T00:28:49;8.53;;;2.53;;
4508;SDS011;2267;48.816;9.230;2023-07-20T00:31:17;5.50;;;3.00;;
4508;SDS011;2267;48.816;9.230;2023-07-20T00:33:45;4.20;;;2.87;;
4508;SDS011;2267;48.816;9.230;2023-07-20T00:36:11;4.00;;;2.20;;
4508;SDS011;2267;48.816;9.230;2023-07-20T00:38:38;5.87;;;2.57;;
4508;SDS011;2267;48.816;9.230;2023-07-20T00:41:05;3.53;;;2.30;;
4508;SDS011;2267;48.816;9.230;2023-07-20T00:43:32;5.00;;;2.27;;
4508;SDS011;2267;48.816;9.230;2023-07-20T00:45:59;4.20;;;2.00;;
4508;SDS011;2267;48.816;9.230;2023-07-20T00:48:26;3.00;;;2.40;;
4508;SDS011;2267;48.816;9.230;2023-07-20T00:50:53;4.20;;;2.23;;
4508;SDS011;2267;48.816;9.230;2023-07-20T00:53:20;4.83;;;2.07;;
4508;SDS011;2267;48.816;9.230;2023-07-20T00:55:47;3.20;;;2.47;;
4508;SDS011;2267;48.816;9.230;2023-07-20T00:58:14;3.03;;;1.87;;
4508;SDS011;2267;48.816;9.230;2023-07-20T01:00:41;5.00;;;2.27;;
4508;SDS011;2267;48.816;9.230;2023-07-20T01:03:08;3.33;;;2.00;;
4508;SDS011;2267;48.816;9.230;2023-07-20T01:05:40;3.70;;;2.20;;
4508;SDS011;2267;48.816;9.230;2023-07-20T01:11:01;2.60;;;1.73;;
4508;SDS011;2267;48.816;9.230;2023-07-20T01:13:37;5.80;;;2.50;;
4508;SDS011;2267;48.816;9.230;2023-07-20T01:16:05;3.40;;;2.30;;
4508;SDS011;2267;48.816;9.230;2023-07-20T01:18:31;4.97;;;2.27;;
4508;SDS011;2267;48.816;9.230;2023-07-20T01:20:59;2.50;;;1.70;;
4508;SDS011;2267;48.816;9.230;2023-07-20T01:23:46;2.50;;;1.93;;
4508;SDS011;2267;48.816;9.230;2023-07-20T01:29:41;3.97;;;2.20;;
4508;SDS011;2267;48.816;9.230;2023-07-20T01:32:05;6.27;;;2.70;;
4508;SDS011;2267;48.816;9.230;2023-07-20T01:34:35;5.03;;;2.13;;
4508;SDS011;2267;48.816;9.230;2023-07-20T01:37:02;4.97;;;2.13;;
4508;SDS011;2267;48.816;9.230;2023-07-20T01:39:30;2.77;;;1.83;;
4508;SDS011;2267;48.816;9.230;2023-07-20T01:41:58;3.07;;;2.20;;
4508;SDS011;2267;48.816;9.230;2023-07-20T01:44:25;4.23;;;1.80;;
4508;SDS011;2267;48.816;9.230;2023-07-20T01:46:52;4.20;;;2.07;;
4508;SDS011;2267;48.816;9.230;2023-07-20T01:49:18;4.00;;;2.07;;
4508;SDS011;2267;48.816;9.230;2023-07-20T01:51:45;3.73;;;2.10;;
4508;SDS011;2267;48.816;9.230;2023-07-20T01:54:12;2.80;;;2.00;;
4508;SDS011;2267;48.816;9.230;2023-07-20T01:56:39;3.43;;;2.43;;
4508;SDS011;2267;48.816;9.230;2023-07-20T01:59:05;3.13;;;1.97;;
4508;SDS011;2267;48.816;9.230;2023-07-20T02:01:32;5.00;;;2.40;;
4508;SDS011;2267;48.816;9.230;2023-07-20T02:04:00;3.17;;;2.07;;
4508;SDS011;2267;48.816;9.230;2023-07-20T02:06:27;5.40;;;2.43;;
4508;SDS011;2267;48.816;9.230;2023-07-20T02:08:53;4.47;;;2.27;;
4508;SDS011;2267;48.816;9.230;2023-07-20T02:11:20;3.57;;;2.13;;
4508;SDS011;2267;48.816;9.230;2023-07-20T02:13:47;2.70;;;2.30;;
4508;SDS011;2267;48.816;9.230;2023-07-20T02:16:14;2.93;;;2.10;;
4508;SDS011;2267;48.816;9.230;2023-07-20T02:18:41;4.93;;;2.70;;
4508;SDS011;2267;48.816;9.230;2023-07-20T02:21:07;3.47;;;2.00;;
4508;SDS011;2267;48.816;9.230;2023-07-20T02:23:34;4.60;;;2.60;;
4508;SDS011;2267;48.816;9.230;2023-07-20T02:26:01;4.20;;;2.27;;
4508;SDS011;2267;48.816;9.230;2023-07-20T02:28:28;5.03;;;2.90;;
4508;SDS011;2267;48.816;9.230;2023-07-20T02:30:55;3.10;;;2.27;;
4508;SDS011;2267;48.816;9.230;2023-07-20T02:33:22;3.00;;;2.70;;
4508;SDS011;2267;48.816;9.230;2023-07-20T02:35:49;2.60;;;1.80;;
4508;SDS011;2267;48.816;9.230;2023-07-20T02:38:15;2.93;;;2.43;;
4508;SDS011;2267;48.816;9.230;2023-07-20T02:40:42;3.07;;;2.27;;
4508;SDS011;2267;48.816;9.230;2023-07-20T02:43:09;3.13;;;2.33;;
4508;SDS011;2267;48.816;9.230;2023-07-20T02:45:39;4.00;;;3.00;;
4508;SDS011;2267;48.816;9.230;2023-07-20T02:48:06;3.07;;;2.63;;
4508;SDS011;2267;48.816;9.230;2023-07-20T02:50:34;5.10;;;2.70;;
4508;SDS011;2267;48.816;9.230;2023-07-20T02:53:01;4.03;;;2.60;;
4508;SDS011;2267;48.816;9.230;2023-07-20T02:55:28;4.40;;;2.80;;
4508;SDS011;2267;48.816;9.230;2023-07-20T02:57:55;3.87;;;2.43;;
4508;SDS011;2267;48.816;9.230;2023-07-20T03:00:22;3.30;;;2.47;;
4508;SDS011;2267;48.816;9.230;2023-07-20T03:02:50;3.93;;;2.90;;
4508;SDS011;2267;48.816;9.230;2023-07-20T03:05:19;3.70;;;2.70;;
4508;SDS011;2267;48.816;9.230;2023-07-20T03:07:46;3.47;;;2.53;;
4508;SDS011;2267;48.816;9.230;2023-07-20T03:10:13;4.20;;;2.43;;
4508;SDS011;2267;48.816;9.230;2023-07-20T03:12:40;3.10;;;2.03;;
4508;SDS011;2267;48.816;9.230;2023-07-20T03:15:07;3.60;;;2.60;;
4508;SDS011;2267;48.816;9.230;2023-07-20T03:17:35;3.10;;;2.33;;
4508;SDS011;2267;48.816;9.230;2023-07-20T03:20:02;5.13;;;2.40;;
4508;SDS011;2267;48.816;9.230;2023-07-20T03:22:29;4.60;;;2.40;;
4508;SDS011;2267;48.816;9.230;2023-07-20T03:24:56;3.80;;;2.80;;
4508;SDS011;2267;48.816;9.230;2023-07-20T03:27:22;4.07;;;2.53;;
4508;SDS011;2267;48.816;9.230;2023-07-20T03:29:49;4.13;;;3.00;;
4508;SDS011;2267;48.816;9.230;2023-07-20T03:32:16;5.63;;;2.50;;
4508;SDS011;2267;48.816;9.230;2023-07-20T03:34:43;5.50;;;2.73;;
4508;SDS011;2267;48.816;9.230;2023-07-20T03:37:10;5.07;;;2.73;;
4508;SDS011;2267;48.816;9.230;2023-07-20T03:39:38;5.53;;;2.87;;
4508;SDS011;2267;48.816;9.230;2023-07-20T03:42:05;3.73;;;2.97;;
4508;SDS011;2267;48.816;9.230;2023-07-20T03:44:33;4.20;;;2.47;;
4508;SDS011;2267;48.816;9.230;2023-07-20T03:47:00;4.30;;;2.83;;
4508;SDS011;2267;48.816;9.230;2023-07-20T03:49:27;5.90;;;3.00;;
4508;SDS011;2267;48.816;9.230;2023-07-20T03:51:54;6.30;;;3.00;;
4508;SDS011;2267;48.816;9.230;2023-07-20T03:54:21;4.50;;;2.90;;
4508;SDS011;2267;48.816;9.230;2023-07-20T03:56:48;5.23;;;2.33;;
4508;SDS011;2267;48.816;9.230;2023-07-20T03:59:15;2.90;;;2.27;;
4508;SDS011;2267;48.816;9.230;2023-07-20T04:01:42;4.00;;;2.57;;
4508;SDS011;2267;48.816;9.230;2023-07-20T04:04:09;3.33;;;2.23;;
4508;SDS011;2267;48.816;9.230;2023-07-20T04:06:36;5.60;;;2.70;;
4508;SDS011;2267;48.816;9.230;2023-07-20T04:09:03;4.60;;;3.00;;
4508;SDS011;2267;48.816;9.230;2023-07-20T04:11:33;3.10;;;2.20;;
4508;SDS011;2267;48.816;9.230;2023-07-20T04:13:59;3.60;;;2.97;;
4508;SDS011;2267;48.816;9.230;2023-07-20T04:16:26;2.73;;;2.20;;
4508;SDS011;2267;48.816;9.230;2023-07-20T04:18:56;5.90;;;2.40;;
4508;SDS011;2267;48.816;9.230;2023-07-20T04:21:27;3.83;;;3.20;;
4508;SDS011;2267;48.816;9.230;2023-07-20T04:23:54;3.83;;;2.37;;
4508;SDS011;2267;48.816;9.230;2023-07-20T04:26:21;7.93;;;2.70;;
4508;SDS011;2267;48.816;9.230;2023-07-20T04:28:48;2.70;;;2.20;;
4508;SDS011;2267;48.816;9.230;2023-07-20T04:31:16;2.90;;;2.43;;
4508;SDS011;2267;48.816;9.230;2023-07-20T04:33:43;4.37;;;2.50;;
4508;SDS011;2267;48.816;9.230;2023-07-20T04:36:10;3.47;;;2.63;;
4508;SDS011;2267;48.816;9.230;2023-07-20T04:38:37;6.73;;;2.50;;
4508;SDS011;2267;48.816;9.230;2023-07-20T04:41:04;4.57;;;2.60;;
4508;SDS011;2267;48.816;9.230;2023-07-20T04:43:31;4.10;;;2.33;;
4508;SDS011;2267;48.816;9.230;2023-07-20T04:45:57;4.30;;;2.70;;
4508;SDS011;2267;48.816;9.230;2023-07-20T04:48:24;3.60;;;2.77;;
4508;SDS011;2267;48.816;9.230;2023-07-20T04:50:51;2.80;;;2.20;;
4508;SDS011;2267;48.816;9.230;2023-07-20T04:53:18;3.70;;;2.77;;
4508;SDS011;2267;48.816;9.230;2023-07-20T04:55:48;3.60;;;2.53;;
4508;SDS011;2267;48.816;9.230;2023-07-20T04:58:20;3.30;;;2.60;;
4508;SDS011;2267;48.816;9.230;2023-07-20T05:00:48;4.97;;;2.40;;
4508;SDS011;2267;48.816;9.230;2023-07-20T05:03:16;3.83;;;2.20;;
4508;SDS011;2267;48.816;9.230;2023-07-20T05:05:43;3.90;;;2.63;;
4508;SDS011;2267;48.816;9.230;2023-07-20T05:08:13;3.47;;;2.27;;
4508;SDS011;2267;48.816;9.230;2023-07-20T05:10:40;4.20;;;2.53;;
4508;SDS011;2267;48.816;9.230;2023-07-20T05:13:07;6.77;;;3.03;;
4508;SDS011;2267;48.816;9.230;2023-07-20T05:15:34;4.33;;;2.50;;
4508;SDS011;2267;48.816;9.230;2023-07-20T05:18:01;3.17;;;2.17;;
4508;SDS011;2267;48.816;9.230;2023-07-20T05:20:28;4.50;;;2.73;;
4508;SDS011;2267;48.816;9.230;2023-07-20T05:22:54;3.73;;;2.87;;
4508;SDS011;2267;48.816;9.230;2023-07-20T05:25:21;4.07;;;2.50;;
4508;SDS011;2267;48.816;9.230;2023-07-20T05:27:49;7.80;;;2.63;;
4508;SDS011;2267;48.816;9.230;2023-07-20T05:30:16;4.60;;;2.70;;
4508;SDS011;2267;48.816;9.230;2023-07-20T05:32:43;5.33;;;2.70;;
4508;SDS011;2267;48.816;9.230;2023-07-20T05:35:13;4.50;;;2.77;;
4508;SDS011;2267;48.816;9.230;2023-07-20T05:37:41;5.10;;;2.30;;
4508;SDS011;2267;48.816;9.230;2023-07-20T05:40:08;2.93;;;1.93;;
4508;SDS011;2267;48.816;9.230;2023-07-20T05:42:38;5.60;;;2.67;;
4508;SDS011;2267;48.816;9.230;2023-07-20T05:45:05;5.03;;;2.50;;
4508;SDS011;2267;48.816;9.230;2023-07-20T05:47:33;3.57;;;2.20;;
4508;SDS011;2267;48.816;9.230;2023-07-20T05:50:00;5.13;;;2.87;;
4508;SDS011;2267;48.816;9.230;2023-07-20T05:52:27;5.60;;;2.70;;
4508;SDS011;2267;48.816;9.230;2023-07-20T05:54:54;3.30;;;2.60;;
4508;SDS011;2267;48.816;9.230;2023-07-20T05:57:21;2.53;;;2.10;;
4508;SDS011;2267;48.816;9.230;2023-07-20T05:59:48;4.73;;;2.63;;
4508;SDS011;2267;48.816;9.230;2023-07-20T06:02:15;3.40;;;2.50;;
4508;SDS011;2267;48.816;9.230;2023-07-20T06:04:42;6.27;;;2.80;;
4508;SDS011;2267;48.816;9.230;2023-07-20T06:07:09;4.80;;;2.57;;
4508;SDS011;2267;48.816;9.230;2023-07-20T06:09:36;3.73;;;2.40;;
4508;SDS011;2267;48.816;9.230;2023-07-20T06:12:03;6.33;;;2.93;;
4508;SDS011;2267;48.816;9.230;2023-07-20T06:14:31;6.83;;;2.43;;
4508;SDS011;2267;48.816;9.230;2023-07-20T06:16:57;4.33;;;2.33;;
4508;SDS011;2267;48.816;9.230;2023-07-20T06:19:24;3.30;;;2.40;;
4508;SDS011;2267;48.816;9.230;2023-07-20T06:21:51;4.50;;;2.57;;
4508;SDS011;2267;48.816;9.230;2023-07-20T06:24:18;4.17;;;2.90;;
4508;SDS011;2267;48.816;9.230;2023-07-20T06:26:45;4.20;;;2.50;;
4508;SDS011;2267;48.816;9.230;2023-07-20T06:29:11;3.13;;;2.00;;
4508;SDS011;2267;48.816;9.230;2023-07-20T06:31:38;4.57;;;2.37;;
4508;SDS011;2267;48.816;9.230;2023-07-20T06:34:05;4.20;;;2.63;;
4508;SDS011;2267;48.816;9.230;2023-07-20T06:36:32;3.97;;;2.47;;
4508;SDS011;2267;48.816;9.230;2023-07-20T06:38:59;4.67;;;2.27;;
4508;SDS011;2267;48.816;9.230;2023-07-20T06:41:29;3.77;;;2.50;;
4508;SDS011;2267;48.816;9.230;2023-07-20T06:43:58;4.10;;;2.40;;
4508;SDS011;2267;48.816;9.230;2023-07-20T06:46:26;4.03;;;2.53;;
4508;SDS011;2267;48.816;9.230;2023-07-20T06:48:53;4.23;;;2.57;;
4508;SDS011;2267;48.816;9.230;2023-07-20T06:51:24;6.83;;;3.00;;
4508;SDS011;2267;48.816;9.230;2023-07-20T06:53:51;4.23;;;2.27;;
4508;SDS011;2267;48.816;9.230;2023-07-20T06:56:18;4.07;;;2.20;;
4508;SDS011;2267;48.816;9.230;2023-07-20T06:58:48;4.80;;;2.80;;
4508;SDS011;2267;48.816;9.230;2023-07-20T07:01:15;4.07;;;2.50;;
4508;SDS011;2267;48.816;9.230;2023-07-20T07:03:43;4.70;;;2.30;;
4508;SDS011;2267;48.816;9.230;2023-07-20T07:06:10;6.87;;;2.57;;
4508;SDS011;2267;48.816;9.230;2023-07-20T07:08:37;4.10;;;2.20;;
4508;SDS011;2267;48.816;9.230;2023-07-20T07:11:04;3.83;;;2.17;;
4508;SDS011;2267;48.816;9.230;2023-07-20T07:13:31;3.07;;;2.60;;
4508;SDS011;2267;48.816;9.230;2023-07-20T07:15:58;3.33;;;2.57;;
4508;SDS011;2267;48.816;9.230;2023-07-20T07:18:25;3.73;;;2.57;;
4508;SDS011;2267;48.816;9.230;2023-07-20T07:20:53;4.57;;;2.87;;
4508;SDS011;2267;48.816;9.230;2023-07-20T07:23:20;5.00;;;2.13;;
4508;SDS011;2267;48.816;9.230;2023-07-20T07:25:47;3.30;;;2.20;;
4508;SDS011;2267;48.816;9.230;2023-07-20T07:28:14;3.50;;;2.40;;
4508;SDS011;2267;48.816;9.230;2023-07-20T07:30:41;5.47;;;2.60;;
4508;SDS011;2267;48.816;9.230;2023-07-20T07:33:08;3.63;;;2.20;;
4508;SDS011;2267;48.816;9.230;2023-07-20T07:35:36;4.03;;;2.40;;
4508;SDS011;2267;48.816;9.230;2023-07-20T07:38:03;4.70;;;2.80;;
4508;SDS011;2267;48.816;9.230;2023-07-20T07:40:52;3.20;;;2.53;;
4508;SDS011;2267;48.816;9.230;2023-07-20T07:43:19;3.90;;;2.70;;
4508;SDS011;2267;48.816;9.230;2023-07-20T07:45:46;3.77;;;2.33;;
4508;SDS011;2267;48.816;9.230;2023-07-20T07:48:13;2.87;;;2.23;;
4508;SDS011;2267;48.816;9.230;2023-07-20T07:50:40;4.30;;;2.33;;
4508;SDS011;2267;48.816;9.230;2023-07-20T07:53:08;4.37;;;2.47;;
4508;SDS011;2267;48.816;9.230;2023-07-20T07:55:36;3.67;;;2.47;;
4508;SDS011;2267;48.816;9.230;2023-07-20T07:58:03;4.00;;;2.20;;
4508;SDS011;2267;48.816;9.230;2023-07-20T08:00:29;2.80;;;2.30;;
4508;SDS011;2267;48.816;9.230;2023-07-20T08:02:56;5.83;;;2.50;;
4508;SDS011;2267;48.816;9.230;2023-07-20T08:05:24;4.13;;;2.10;;
4508;SDS011;2267;48.816;9.230;2023-07-20T08:07:52;3.30;;;1.93;;
4508;SDS011;2267;48.816;9.230;2023-07-20T08:10:19;3.07;;;2.47;;
4508;SDS011;2267;48.816;9.230;2023-07-20T08:12:46;3.53;;;2.00;;
4508;SDS011;2267;48.816;9.230;2023-07-20T08:15:13;4.07;;;2.50;;
4508;SDS011;2267;48.816;9.230;2023-07-20T08:17:41;5.40;;;2.63;;
4508;SDS011;2267;48.816;9.230;2023-07-20T08:20:12;4.03;;;2.30;;
4508;SDS011;2267;48.816;9.230;2023-07-20T08:22:39;4.63;;;2.00;;
4508;SDS011;2267;48.816;9.230;2023-07-20T08:25:06;2.97;;;2.10;;
4508;SDS011;2267;48.816;9.230;2023-07-20T08:27:34;3.83;;;2.27;;
4508;SDS011;2267;48.816;9.230;2023-07-20T08:30:02;4.17;;;2.00;;
4508;SDS011;2267;48.816;9.230;2023-07-20T08:32:30;6.83;;;2.70;;
4508;SDS011;2267;48.816;9.230;2023-07-20T08:34:58;4.70;;;2.50;;
4508;SDS011;2267;48.816;9.230;2023-07-20T08:37:25;4.27;;;2.67;;
4508;SDS011;2267;48.816;9.230;2023-07-20T08:39:52;9.80;;;2.60;;
4508;SDS011;2267;48.816;9.230;2023-07-20T08:42:19;4.47;;;2.03;;
4508;SDS011;2267;48.816;9.230;2023-07-20T08:44:48;6.37;;;2.20;;
4508;SDS011;2267;48.816;9.230;2023-07-20T08:47:18;4.17;;;2.47;;
4508;SDS011;2267;48.816;9.230;2023-07-20T08:49:50;5.60;;;2.17;;
4508;SDS011;2267;48.816;9.230;2023-07-20T08:52:17;2.50;;;2.10;;
4508;SDS011;2267;48.816;9.230;2023-07-20T08:54:44;4.60;;;2.40;;
4508;SDS011;2267;48.816;9.230;2023-07-20T08:57:11;4.20;;;2.23;;
4508;SDS011;2267;48.816;9.230;2023-07-20T08:59:41;3.77;;;2.23;;
4508;SDS011;2267;48.816;9.230;2023-07-20T09:02:07;3.70;;;2.07;;
4508;SDS011;2267;48.816;9.230;2023-07-20T09:04:44;3.80;;;2.17;;
4508;SDS011;2267;48.816;9.230;2023-07-20T09:07:11;4.20;;;2.40;;
4508;SDS011;2267;48.816;9.230;2023-07-20T09:09:40;5.67;;;2.07;;
4508;SDS011;2267;48.816;9.230;2023-07-20T09:12:13;5.03;;;2.30;;
4508;SDS011;2267;48.816;9.230;2023-07-20T09:14:43;5.53;;;2.30;;
4508;SDS011;2267;48.816;9.230;2023-07-20T09:17:14;5.27;;;2.07;;
4508;SDS011;2267;48.816;9.230;2023-07-20T09:19:46;4.10;;;2.03;;
4508;SDS011;2267;48.816;9.230;2023-07-20T09:22:16;4.30;;;1.83;;
4508;SDS011;2267;48.816;9.230;2023-07-20T09:24:44;6.37;;;2.23;;
4508;SDS011;2267;48.816;9.230;2023-07-20T09:27:11;3.83;;;2.27;;
4508;SDS011;2267;48.816;9.230;2023-07-20T09:29:48;3.33;;;2.33;;
4508;SDS011;2267;48.816;9.230;2023-07-20T09:32:19;6.73;;;3.00;;
4508;SDS011;2267;48.816;9.230;2023-07-20T09:34:51;3.30;;;2.50;;
4508;SDS011;2267;48.816;9.230;2023-07-20T09:37:21;4.23;;;2.90;;
4508;SDS011;2267;48.816;9.230;2023-07-20T09:39:51;3.20;;;2.90;;
4508;SDS011;2267;48.816;9.230;2023-07-20T09:42:24;5.10;;;2.70;;
4508;SDS011;2267;48.816;9.230;2023-07-20T09:44:56;3.50;;;1.90;;
4508;SDS011;2267;48.816;9.230;2023-07-20T09:47:23;3.20;;;1.90;;
4508;SDS011;2267;48.816;9.230;2023-07-20T09:49:58;3.03;;;2.50;;
4508;SDS011;2267;48.816;9.230;2023-07-20T09:52:32;4.50;;;2.27;;
4508;SDS011;2267;48.816;9.230;2023-07-20T09:55:04;4.83;;;1.87;;
4508;SDS011;2267;48.816;9.230;2023-07-20T09:57:34;4.00;;;2.20;;
4508;SDS011;2267;48.816;9.230;2023-07-20T10:00:03;3.80;;;2.40;;
4508;SDS011;2267;48.816;9.230;2023-07-20T10:02:43;3.07;;;1.90;;
4508;SDS011;2267;48.816;9.230;2023-07-20T10:05:12;2.87;;;2.00;;
4508;SDS011;2267;48.816;9.230;2023-07-20T10:07:47;3.07;;;1.53;;
4508;SDS011;2267;48.816;9.230;2023-07-20T10:10:18;3.07;;;1.90;;
4508;SDS011;2267;48.816;9.230;2023-07-20T10:12:48;2.63;;;1.67;;
4508;SDS011;2267;48.816;9.230;2023-07-20T10:15:19;3.93;;;1.93;;
4508;SDS011;2267;48.816;9.230;2023-07-20T10:18:02;2.93;;;1.60;;
4508;SDS011;2267;48.816;9.230;2023-07-20T10:20:36;3.07;;;2.00;;
4508;SDS011;2267;48.816;9.230;2023-07-20T10:23:28;2.60;;;1.60;;
4508;SDS011;2267;48.816;9.230;2023-07-20T10:25:57;3.20;;;2.03;;
4508;SDS011;2267;48.816;9.230;2023-07-20T10:28:26;3.73;;;2.20;;
4508;SDS011;2267;48.816;9.230;2023-07-20T10:30:54;3.10;;;1.60;;
4508;SDS011;2267;48.816;9.230;2023-07-20T10:33:20;2.90;;;1.73;;
4508;SDS011;2267;48.816;9.230;2023-07-20T10:35:55;3.97;;;1.90;;
4508;SDS011;2267;48.816;9.230;2023-07-20T10:38:39;2.47;;;1.70;;
4508;SDS011;2267;48.816;9.230;2023-07-20T10:41:27;3.27;;;1.63;;
4508;SDS011;2267;48.816;9.230;2023-07-20T10:44:00;2.30;;;1.70;;
4508;SDS011;2267;48.816;9.230;2023-07-20T10:46:34;4.83;;;1.83;;
4508;SDS011;2267;48.816;9.230;2023-07-20T10:49:02;3.60;;;1.40;;
4508;SDS011;2267;48.816;9.230;2023-07-20T10:51:38;2.87;;;1.63;;
4508;SDS011;2267;48.816;9.230;2023-07-20T10:56:43;2.70;;;1.67;;
4508;SDS011;2267;48.816;9.230;2023-07-20T11:02:07;2.30;;;1.40;;
4508;SDS011;2267;48.816;9.230;2023-07-20T11:04:41;2.90;;;1.50;;
4508;SDS011;2267;48.816;9.230;2023-07-20T11:07:10;3.50;;;1.70;;
4508;SDS011;2267;48.816;9.230;2023-07-20T11:09:41;2.37;;;1.53;;
4508;SDS011;2267;48.816;9.230;2023-07-20T11:12:09;2.77;;;1.40;;
4508;SDS011;2267;48.816;9.230;2023-07-20T11:14:41;2.07;;;1.50;;
4508;SDS011;2267;48.816;9.230;2023-07-20T11:17:13;3.40;;;1.40;;
4508;SDS011;2267;48.816;9.230;2023-07-20T11:19:40;2.27;;;1.23;;
4508;SDS011;2267;48.816;9.230;2023-07-20T11:22:10;2.30;;;1.80;;
4508;SDS011;2267;48.816;9.230;2023-07-20T11:24:38;3.50;;;2.00;;
4508;SDS011;2267;48.816;9.230;2023-07-20T11:27:06;3.20;;;1.60;;
4508;SDS011;2267;48.816;9.230;2023-07-20T11:29:34;2.00;;;1.20;;
4508;SDS011;2267;48.816;9.230;2023-07-20T11:32:01;2.20;;;1.40;;
4508;SDS011;2267;48.816;9.230;2023-07-20T11:34:31;2.20;;;1.30;;
4508;SDS011;2267;48.816;9.230;2023-07-20T11:36:59;2.90;;;1.47;;
4508;SDS011;2267;48.816;9.230;2023-07-20T11:39:29;3.57;;;1.27;;
4508;SDS011;2267;48.816;9.230;2023-07-20T11:41:56;2.20;;;1.40;;
4508;SDS011;2267;48.816;9.230;2023-07-20T11:44:24;2.60;;;1.70;;
4508;SDS011;2267;48.816;9.230;2023-07-20T11:47:10;2.10;;;1.20;;
4508;SDS011;2267;48.816;9.230;2023-07-20T11:49:38;2.60;;;1.80;;
4508;SDS011;2267;48.816;9.230;2023-07-20T11:52:10;3.07;;;1.43;;
4508;SDS011;2267;48.816;9.230;2023-07-20T11:54:39;2.57;;;1.40;;
4508;SDS011;2267;48.816;9.230;2023-07-20T11:57:16;3.80;;;1.43;;
4508;SDS011;2267;48.816;9.230;2023-07-20T12:00:00;3.97;;;1.60;;
4508;SDS011;2267;48.816;9.230;2023-07-20T12:02:32;4.70;;;1.60;;
4508;SDS011;2267;48.816;9.230;2023-07-20T12:04:59;2.33;;;1.13;;
4508;SDS011;2267;48.816;9.230;2023-07-20T12:07:27;3.00;;;1.80;;
4508;SDS011;2267;48.816;9.230;2023-07-20T12:10:07;2.10;;;1.23;;
4508;SDS011;2267;48.816;9.230;2023-07-20T12:12:39;3.60;;;1.37;;
4508;SDS011;2267;48.816;9.230;2023-07-20T12:17:53;2.67;;;1.30;;
4508;SDS011;2267;48.816;9.230;2023-07-20T12:20:25;2.37;;;1.57;;
4508;SDS011;2267;48.816;9.230;2023-07-20T12:23:01;2.60;;;1.27;;
4508;SDS011;2267;48.816;9.230;2023-07-20T12:25:36;1.90;;;1.10;;
4508;SDS011;2267;48.816;9.230;2023-07-20T12:28:08;2.70;;;1.63;;
4508;SDS011;2267;48.816;9.230;2023-07-20T12:30:36;3.77;;;1.30;;
4508;SDS011;2267;48.816;9.230;2023-07-20T12:33:04;2.03;;;1.27;;
4508;SDS011;2267;48.816;9.230;2023-07-20T12:35:31;2.00;;;1.30;;
4508;SDS011;2267;48.816;9.230;2023-07-20T12:37:58;4.53;;;1.10;;
4508;SDS011;2267;48.816;9.230;2023-07-20T12:40:25;2.60;;;1.40;;
4508;SDS011;2267;48.816;9.230;2023-07-20T12:42:52;2.40;;;1.67;;
4508;SDS011;2267;48.816;9.230;2023-07-20T12:45:19;2.77;;;1.60;;
4508;SDS011;2267;48.816;9.230;2023-07-20T12:47:46;2.30;;;1.80;;
4508;SDS011;2267;48.816;9.230;2023-07-20T12:50:14;2.27;;;1.37;;
4508;SDS011;2267;48.816;9.230;2023-07-20T12:52:41;1.93;;;1.23;;
4508;SDS011;2267;48.816;9.230;2023-07-20T12:55:08;3.03;;;1.53;;
4508;SDS011;2267;48.816;9.230;2023-07-20T12:57:36;3.30;;;1.47;;
4508;SDS011;2267;48.816;9.230;2023-07-20T13:00:04;3.03;;;1.70;;
4508;SDS011;2267;48.816;9.230;2023-07-20T13:02:34;2.20;;;1.33;;
4508;SDS011;2267;48.816;9.230;2023-07-20T13:05:01;2.60;;;1.40;;
4508;SDS011;2267;48.816;9.230;2023-07-20T13:07:36;1.90;;;1.30;;
4508;SDS011;2267;48.816;9.230;2023-07-20T13:10:07;3.07;;;1.50;;
4508;SDS011;2267;48.816;9.230;2023-07-20T13:12:36;5.00;;;1.60;;
4508;SDS011;2267;48.816;9.230;2023-07-20T13:15:04;2.27;;;1.20;;
4508;SDS011;2267;48.816;9.230;2023-07-20T13:17:36;3.50;;;1.43;;
4508;SDS011;2267;48.816;9.230;2023-07-20T13:20:06;2.50;;;1.47;;
4508;SDS011;2267;48.816;9.230;2023-07-20T13:22:36;2.63;;;1.37;;
4508;SDS011;2267;48.816;9.230;2023-07-20T13:25:04;2.83;;;1.60;;
4508;SDS011;2267;48.816;9.230;2023-07-20T13:27:32;5.03;;;1.77;;
4508;SDS011;2267;48.816;9.230;2023-07-20T13:30:00;3.27;;;1.60;;
4508;SDS011;2267;48.816;9.230;2023-07-20T13:32:29;3.60;;;1.70;;
4508;SDS011;2267;48.816;9.230;2023-07-20T13:34:59;2.80;;;1.43;;
4508;SDS011;2267;48.816;9.230;2023-07-20T13:37:27;1.87;;;1.07;;
4508;SDS011;2267;48.816;9.230;2023-07-20T13:39:54;2.80;;;1.20;;
4508;SDS011;2267;48.816;9.230;2023-07-20T13:42:22;2.00;;;1.50;;
4508;SDS011;2267;48.816;9.230;2023-07-20T13:44:49;3.97;;;1.50;;
4508;SDS011;2267;48.816;9.230;2023-07-20T13:47:16;2.43;;;1.40;;
4508;SDS011;2267;48.816;9.230;2023-07-20T13:49:45;1.97;;;1.53;;
4508;SDS011;2267;48.816;9.230;2023-07-20T13:52:14;2.93;;;1.60;;
4508;SDS011;2267;48.816;9.230;2023-07-20T13:54:44;2.30;;;1.50;;
4508;SDS011;2267;48.816;9.230;2023-07-20T13:57:16;2.67;;;1.80;;
4508;SDS011;2267;48.816;9.230;2023-07-20T13:59:44;3.80;;;1.53;;
4508;SDS011;2267;48.816;9.230;2023-07-20T14:02:13;2.33;;;1.50;;
4508;SDS011;2267;48.816;9.230;2023-07-20T14:04:44;2.83;;;1.20;;
4508;SDS011;2267;48.816;9.230;2023-07-20T14:07:11;4.40;;;1.73;;
4508;SDS011;2267;48.816;9.230;2023-07-20T14:09:38;3.60;;;1.27;;
4508;SDS011;2267;48.816;9.230;2023-07-20T14:12:25;2.10;;;1.30;;
4508;SDS011;2267;48.816;9.230;2023-07-20T14:14:53;2.77;;;1.60;;
4508;SDS011;2267;48.816;9.230;2023-07-20T14:17:21;2.97;;;1.73;;
4508;SDS011;2267;48.816;9.230;2023-07-20T14:19:48;2.33;;;1.40;;
4508;SDS011;2267;48.816;9.230;2023-07-20T14:22:16;2.40;;;1.30;;
4508;SDS011;2267;48.816;9.230;2023-07-20T14:24:45;2.73;;;1.30;;
4508;SDS011;2267;48.816;9.230;2023-07-20T14:27:12;3.80;;;1.50;;
4508;SDS011;2267;48.816;9.230;2023-07-20T14:29:39;2.07;;;1.30;;
4508;SDS011;2267;48.816;9.230;2023-07-20T14:32:05;4.23;;;1.40;;
4508;SDS011;2267;48.816;9.230;2023-07-20T14:34:33;2.10;;;1.20;;
4508;SDS011;2267;48.816;9.230;2023-07-20T14:37:05;2.00;;;1.23;;
4508;SDS011;2267;48.816;9.230;2023-07-20T14:39:32;2.90;;;1.20;;
4508;SDS011;2267;48.816;9.230;2023-07-20T14:41:59;2.60;;;1.60;;
4508;SDS011;2267;48.816;9.230;2023-07-20T14:44:25;2.67;;;1.23;;
4508;SDS011;2267;48.816;9.230;2023-07-20T14:46:52;2.53;;;1.57;;
4508;SDS011;2267;48.816;9.230;2023-07-20T14:49:36;2.03;;;1.20;;
4508;SDS011;2267;48.816;9.230;2023-07-20T14:52:03;3.10;;;1.40;;
4508;SDS011;2267;48.816;9.230;2023-07-20T14:54:41;2.33;;;1.30;;
4508;SDS011;2267;48.816;9.230;2023-07-20T14:57:08;2.00;;;1.20;;
4508;SDS011;2267;48.816;9.230;2023-07-20T14:59:40;3.80;;;1.97;;
4508;SDS011;2267;48.816;9.230;2023-07-20T15:02:12;2.10;;;1.10;;
4508;SDS011;2267;48.816;9.230;2023-07-20T15:04:48;1.97;;;1.10;;
4508;SDS011;2267;48.816;9.230;2023-07-20T15:07:16;3.00;;;1.73;;
4508;SDS011;2267;48.816;9.230;2023-07-20T15:09:48;2.30;;;1.20;;
4508;SDS011;2267;48.816;9.230;2023-07-20T15:12:15;2.40;;;1.20;;
4508;SDS011;2267;48.816;9.230;2023-07-20T15:14:42;2.70;;;1.57;;
4508;SDS011;2267;48.816;9.230;2023-07-20T15:17:10;2.10;;;1.47;;
4508;SDS011;2267;48.816;9.230;2023-07-20T15:19:37;2.80;;;1.33;;
4508;SDS011;2267;48.816;9.230;2023-07-20T15:22:04;1.90;;;1.30;;
4508;SDS011;2267;48.816;9.230;2023-07-20T15:24:32;2.13;;;1.37;;
4508;SDS011;2267;48.816;9.230;2023-07-20T15:27:00;2.23;;;1.30;;
4508;SDS011;2267;48.816;9.230;2023-07-20T15:29:34;2.10;;;1.10;;
4508;SDS011;2267;48.816;9.230;2023-07-20T15:32:02;2.57;;;1.20;;
4508;SDS011;2267;48.816;9.230;2023-07-20T15:34:29;3.20;;;1.20;;
4508;SDS011;2267;48.816;9.230;2023-07-20T15:36:56;1.80;;;1.20;;
4508;SDS011;2267;48.816;9.230;2023-07-20T15:39:23;1.87;;;1.10;;